Time;durP1;ratioP1;P1;durP2;ratioP2;P2;SDS_P1;SDS_P2;PMS_P1;PMS_P2;Temp;Humidity;BMP_temperature;BMP_pressure;BME280_temperature;BME280_humidity;BME280_pressure;Samples;Min_cycle;Max_cycle;Signal;HPM_P1;HPM_P2
2022/04/06 00:00:42;;;;;;;8.68;4.70;;;;;;;10.03;35.24;100731.44;5064174;28;20411;-60
2022/04/06 00:03:10;;;;;;;6.85;4.72;;;;;;;10.01;35.38;100736.06;5063576;28;20447;-65
2022/04/06 00:05:38;;;;;;;6.83;4.20;;;;;;;10.01;35.21;100732.56;5063827;28;20446;-61
2022/04/06 00:08:05;;;;;;;7.32;4.53;;;;;;;9.90;35.49;100726.63;5063937;28;20499;-61
2022/04/06 00:10:32;;;;;;;7.43;4.85;;;;;;;9.93;35.01;100736.06;5064097;28;20465;-60
2022/04/06 00:13:01;;;;;;;7.63;4.90;;;;;;;9.92;35.66;100735.22;5064201;28;20416;-59
2022/04/06 00:15:27;;;;;;;8.45;5.55;;;;;;;9.75;35.96;100734.38;5063652;28;20812;-62
2022/04/06 00:17:54;;;;;;;7.60;5.00;;;;;;;9.80;35.58;100735.72;5063989;28;20418;-59
2022/04/06 00:20:22;;;;;;;9.20;6.13;;;;;;;9.72;35.96;100741.81;5064259;28;20451;-60
2022/04/06 00:22:51;;;;;;;10.40;5.40;;;;;;;9.84;35.99;100748.47;5063476;28;20455;-60
2022/04/06 00:25:17;;;;;;;8.90;5.30;;;;;;;9.81;35.50;100751.41;5064038;28;20411;-60
2022/04/06 00:27:44;;;;;;;8.23;5.22;;;;;;;9.79;36.01;100756.06;5063148;28;21556;-60
2022/04/06 00:30:12;;;;;;;9.82;5.47;;;;;;;9.62;35.80;100754.41;5063556;28;20432;-59
2022/04/06 00:32:39;;;;;;;8.90;5.40;;;;;;;9.66;36.50;100755.72;5063632;28;20424;-59
2022/04/06 00:37:53;;;;;;;11.40;6.78;;;;;;;9.63;36.30;100754.22;5063058;28;20431;-62
2022/04/06 00:40:22;;;;;;;9.52;6.50;;;;;;;9.71;36.16;100748.94;5063702;28;20404;-60
2022/04/06 00:42:49;;;;;;;10.45;6.80;;;;;;;9.57;36.36;100749.56;5033387;28;20426;-62
2022/04/06 00:45:16;;;;;;;11.10;6.30;;;;;;;9.57;36.68;100757.53;5029317;28;20505;-60
2022/04/06 00:47:44;;;;;;;11.05;6.45;;;;;;;9.52;36.67;100757.16;5030056;28;20410;-60
2022/04/06 00:50:11;;;;;;;9.10;6.65;;;;;;;9.57;36.75;100758.34;5029805;28;20517;-62
2022/04/06 00:52:39;;;;;;;10.50;7.57;;;;;;;9.56;36.99;100756.69;5045556;28;20941;-61
2022/04/06 00:55:10;;;;;;;10.85;7.68;;;;;;;9.53;36.72;100757.00;5050433;28;20421;-60
2022/04/06 00:57:37;;;;;;;12.57;8.40;;;;;;;9.48;37.10;100759.31;5050006;28;20843;-60
2022/04/06 01:00:07;;;;;;;12.68;8.38;;;;;;;9.57;36.87;100760.97;5050409;28;20416;-60
2022/04/06 01:02:34;;;;;;;14.70;9.60;;;;;;;9.50;36.73;100753.88;5050009;28;20767;-60
2022/04/06 01:05:01;;;;;;;15.73;10.43;;;;;;;9.57;36.54;100752.22;5050116;28;20977;-59
2022/04/06 01:09:58;;;;;;;15.33;10.20;;;;;;;9.51;36.94;100758.19;5084537;28;20922;-59
2022/04/06 01:12:25;;;;;;;15.77;9.95;;;;;;;9.32;36.94;100753.97;5075415;28;20498;-59
2022/04/06 01:14:52;;;;;;;13.65;9.82;;;;;;;9.40;37.14;100758.47;5064744;28;20412;-65
2022/04/06 01:17:19;;;;;;;12.75;9.32;;;;;;;9.43;37.01;100758.97;5064894;28;20502;-59
2022/04/06 01:19:47;;;;;;;12.32;8.63;;;;;;;9.31;37.72;100758.44;5064674;28;20502;-60
2022/04/06 01:22:18;;;;;;;10.85;7.55;;;;;;;9.41;36.66;100758.31;5065180;28;20411;-60
2022/04/06 01:24:47;;;;;;;9.50;6.55;;;;;;;9.44;36.24;100763.28;5064846;28;20447;-59
2022/04/06 01:27:15;;;;;;;8.40;6.32;;;;;;;9.40;36.35;100754.03;5064525;28;20503;-62
2022/04/06 01:29:42;;;;;;;9.65;6.55;;;;;;;9.46;36.18;100752.53;5064530;28;20459;-60
2022/04/06 01:32:11;;;;;;;9.48;6.55;;;;;;;9.52;35.94;100762.47;5064818;28;20416;-59
2022/04/06 01:34:38;;;;;;;7.80;5.37;;;;;;;9.51;36.01;100760.81;5064696;28;20439;-59
2022/04/06 01:37:06;;;;;;;7.22;5.05;;;;;;;9.45;36.32;100761.44;5064561;28;20420;-59
2022/04/06 01:39:36;;;;;;;7.85;4.93;;;;;;;9.43;36.35;100761.59;5064628;28;20416;-61
2022/04/06 01:44:07;;;;;;;7.20;4.60;;;;;;;9.29;36.35;100768.38;5104403;27;21073;-59
2022/04/06 01:46:36;;;;;;;8.07;4.55;;;;;;;9.27;36.37;100766.84;5105815;28;20408;-60
2022/04/06 01:54:32;;;;;;;7.97;4.50;;;;;;;9.01;37.20;100765.09;5085063;28;20409;-59
2022/04/06 01:56:59;;;;;;;5.60;4.35;;;;;;;9.21;36.67;100762.22;5084738;28;20859;-59
2022/04/06 01:59:28;;;;;;;6.15;4.45;;;;;;;9.06;37.78;100770.75;5065257;28;20422;-59
2022/04/06 02:01:55;;;;;;;7.18;4.40;;;;;;;9.28;36.47;100774.63;5064651;28;20502;-59
2022/04/06 02:04:22;;;;;;;7.60;5.10;;;;;;;9.29;36.75;100770.16;5065413;28;20456;-59
2022/04/06 02:06:49;;;;;;;6.50;4.50;;;;;;;9.13;37.37;100770.94;5076813;28;20422;-60
2022/04/06 02:09:17;;;;;;;8.63;4.70;;;;;;;9.30;36.70;100774.47;5084867;28;20509;-59
2022/04/06 02:11:45;;;;;;;6.90;4.30;;;;;;;9.28;36.74;100766.69;5084761;28;20410;-59
2022/04/06 02:14:13;;;;;;;5.82;4.47;;;;;;;9.35;36.97;100773.00;5084276;28;20421;-60
2022/04/06 02:16:41;;;;;;;7.13;4.35;;;;;;;9.35;36.50;100777.47;5085171;28;20497;-59
2022/04/06 02:19:08;;;;;;;9.65;4.70;;;;;;;9.34;36.77;100775.81;5084631;28;20410;-59
2022/04/06 02:21:36;;;;;;;6.85;4.60;;;;;;;9.32;36.88;100775.97;5084677;28;20407;-59
2022/04/06 02:24:03;;;;;;;7.93;4.50;;;;;;;9.34;36.59;100771.34;5084100;28;20797;-59
2022/04/06 02:27:55;;;;;;;8.97;4.93;;;;;;;9.30;36.80;100777.13;5121170;27;20466;-61
2022/04/06 02:30:59;;;;;;;6.93;5.37;;;;;;;9.18;37.18;100784.50;5104762;27;20462;-59
2022/04/06 02:33:26;;;;;;;7.35;5.50;;;;;;;9.25;36.72;100787.34;5105720;28;20442;-59
2022/04/06 02:35:53;;;;;;;8.45;6.60;;;;;;;9.16;37.07;100783.84;5091953;28;20450;-59
2022/04/06 02:38:20;;;;;;;11.82;8.68;;;;;;;9.22;36.94;100785.00;5084221;28;20464;-59
2022/04/06 02:40:47;;;;;;;8.50;5.68;;;;;;;9.26;36.38;100778.44;5085036;28;20942;-59
2022/04/06 02:43:14;;;;;;;9.00;5.50;;;;;;;9.20;37.20;100774.63;5084633;28;20428;-59
2022/04/06 02:45:41;;;;;;;11.68;7.03;;;;;;;9.22;36.99;100780.56;5084773;28;20425;-59
2022/04/06 02:48:09;;;;;;;11.80;7.78;;;;;;;9.09;37.35;100775.72;5084931;28;20860;-60
2022/04/06 02:50:36;;;;;;;8.73;5.72;;;;;;;8.66;38.13;100781.91;5085048;28;20505;-60
2022/04/06 02:53:04;;;;;;;8.15;5.13;;;;;;;8.37;41.12;100780.38;5084469;28;20497;-59
2022/04/06 02:55:30;;;;;;;7.00;5.38;;;;;;;8.41;42.46;100787.84;5084728;28;20422;-59
2022/04/06 02:57:57;;;;;;;7.20;5.32;;;;;;;8.44;43.55;100797.28;5084284;28;20800;-64
2022/04/06 03:00:24;;;;;;;7.40;5.53;;;;;;;8.32;45.13;100796.69;5067239;28;20923;-60
2022/04/06 03:02:51;;;;;;;8.87;5.53;;;;;;;8.49;42.90;100795.03;5084999;28;20414;-60
2022/04/06 03:05:19;;;;;;;9.30;5.63;;;;;;;8.57;41.67;100795.09;5084278;28;20988;-59
2022/04/06 03:07:46;;;;;;;8.25;5.57;;;;;;;8.76;41.98;100798.50;5084475;28;20501;-59
2022/04/06 03:10:13;;;;;;;9.73;5.90;;;;;;;8.81;42.05;100801.53;5084465;28;20433;-59
2022/04/06 03:13:56;;;;;;;7.90;5.50;;;;;;;8.79;41.96;100801.66;5078188;28;20496;-60
2022/04/06 03:16:23;;;;;;;8.30;6.20;;;;;;;8.78;41.27;100796.53;5065185;28;20447;-59
2022/04/06 03:18:50;;;;;;;8.50;6.70;;;;;;;8.77;40.31;100803.66;5065272;28;20490;-59
2022/04/06 03:21:17;;;;;;;10.07;7.93;;;;;;;8.49;40.22;100805.59;5056172;28;20520;-63
2022/04/06 03:23:44;;;;;;;7.72;5.32;;;;;;;8.47;39.64;100804.94;5045247;28;20508;-60
2022/04/06 03:26:11;;;;;;;9.85;5.28;;;;;;;8.49;39.72;100808.25;5045021;28;20420;-59
2022/04/06 03:28:39;;;;;;;8.65;5.50;;;;;;;8.66;39.62;100806.56;5045811;28;20846;-62
2022/04/06 03:31:07;;;;;;;9.25;5.70;;;;;;;8.59;39.47;100816.91;5044766;28;20414;-61
2022/04/06 03:33:34;;;;;;;11.55;5.53;;;;;;;8.57;39.29;100818.88;5044329;28;20883;-60
2022/04/06 03:36:01;;;;;;;7.53;5.23;;;;;;;8.53;39.08;100817.50;5047188;28;20419;-65
2022/04/06 03:38:28;;;;;;;9.02;5.50;;;;;;;8.47;39.37;100823.41;5063939;28;20416;-59
2022/04/06 03:40:55;;;;;;;8.75;5.70;;;;;;;8.55;39.21;100814.72;5054751;28;20505;-59
2022/04/06 03:43:22;;;;;;;10.95;5.88;;;;;;;8.55;39.27;100812.91;5043907;28;20922;-59
2022/04/06 03:45:49;;;;;;;10.10;5.57;;;;;;;8.60;39.20;100809.81;5043143;28;21031;-59
2022/04/06 03:48:19;;;;;;;11.00;5.97;;;;;;;8.59;39.55;100810.81;5042479;28;20421;-64
2022/04/06 03:50:46;;;;;;;8.25;5.63;;;;;;;8.73;39.23;100812.03;5041757;28;20409;-59
2022/04/06 03:53:13;;;;;;;351.15;234.85;;;;;;;8.61;40.23;100817.56;5043136;28;20927;-60
2022/04/06 03:55:40;;;;;;;37.50;25.73;;;;;;;8.75;39.72;100821.47;5042828;28;20457;-59
2022/04/06 03:58:07;;;;;;;8.63;6.10;;;;;;;8.66;40.64;100819.78;5043841;28;20460;-59
2022/04/06 04:00:34;;;;;;;9.00;7.13;;;;;;;8.58;40.72;100827.63;5041737;28;20429;-58
2022/04/06 04:03:02;;;;;;;10.65;8.05;;;;;;;8.80;40.67;100827.13;5042888;28;20912;-59
2022/04/06 04:05:32;;;;;;;11.25;7.60;;;;;;;8.77;40.49;100827.44;5040563;28;20425;-59
2022/04/06 04:07:59;;;;;;;10.88;8.60;;;;;;;9.00;39.38;100829.53;5042625;28;20804;-59
2022/04/06 04:10:26;;;;;;;10.07;7.22;;;;;;;9.32;38.45;100830.69;5043425;28;20501;-59
2022/04/06 04:12:53;;;;;;;13.20;6.45;;;;;;;9.61;38.41;100832.94;5042746;28;20429;-59
2022/04/06 04:15:22;;;;;;;11.68;6.53;;;;;;;9.98;37.06;100825.59;5026239;28;21018;-59
2022/04/06 04:17:49;;;;;;;13.68;6.10;;;;;;;10.41;36.03;100827.16;5041827;28;20424;-59
2022/04/06 04:20:16;;;;;;;8.23;5.68;;;;;;;10.74;35.46;100828.94;5043677;28;20819;-62
2022/04/06 04:22:44;;;;;;;9.10;7.30;;;;;;;11.00;35.39;100841.97;5043604;28;20795;-59
2022/04/06 04:25:11;;;;;;;7.60;5.90;;;;;;;11.22;35.07;100838.59;5032020;28;20579;-60
2022/04/06 04:27:39;;;;;;;12.40;8.00;;;;;;;11.14;36.81;100835.97;5003865;28;20482;-59
2022/04/06 04:30:07;;;;;;;13.07;7.75;;;;;;;12.00;35.15;100841.41;5006682;28;20461;-62
2022/04/06 04:32:34;;;;;;;12.70;7.97;;;;;;;12.54;34.00;100841.31;4972444;28;21000;-60
2022/04/06 04:35:03;;;;;;;10.77;7.45;;;;;;;13.00;33.25;100830.56;4972551;28;20423;-60
2022/04/06 04:37:30;;;;;;;13.63;7.53;;;;;;;13.26;33.45;100837.25;4978574;28;20429;-59
2022/04/06 04:39:59;;;;;;;15.30;8.73;;;;;;;13.72;33.07;100836.22;4979011;28;20417;-59
2022/04/06 04:42:26;;;;;;;23.23;11.38;;;;;;;13.31;34.60;100842.91;4989079;28;20425;-65
2022/04/06 04:44:53;;;;;;;12.90;8.05;;;;;;;13.64;33.86;100850.47;4986885;28;20421;-59
2022/04/06 04:47:20;;;;;;;15.05;8.20;;;;;;;14.38;32.28;100843.22;4985354;28;20508;-59
2022/04/06 04:49:47;;;;;;;12.07;8.50;;;;;;;14.72;31.94;100850.50;4985658;28;20421;-60
2022/04/06 04:52:13;;;;;;;12.68;9.27;;;;;;;15.17;31.14;100850.19;4977333;28;20439;-60
2022/04/06 04:54:40;;;;;;;17.17;9.10;;;;;;;16.12;29.58;100861.06;4971158;28;20419;-60
2022/04/06 04:57:09;;;;;;;18.65;8.48;;;;;;;16.46;28.82;100861.91;5001086;28;20431;-59
2022/04/06 04:59:35;;;;;;;16.30;7.18;;;;;;;16.75;28.11;100861.50;5008138;28;20454;-61
2022/04/06 05:02:02;;;;;;;15.00;7.27;;;;;;;17.24;27.41;100862.06;5011662;28;20427;-60
2022/04/06 05:04:29;;;;;;;12.70;7.00;;;;;;;17.76;26.56;100865.59;5011903;28;20491;-59
2022/04/06 05:06:56;;;;;;;10.93;7.17;;;;;;;18.09;25.81;100869.97;4999215;28;20500;-59
2022/04/06 05:09:23;;;;;;;10.60;6.73;;;;;;;18.75;24.61;100867.84;4990411;28;20420;-61
2022/04/06 05:11:50;;;;;;;11.00;6.20;;;;;;;18.95;24.06;100880.28;4992475;28;20923;-59
2022/04/06 05:14:18;;;;;;;10.80;6.03;;;;;;;19.31;24.07;100874.13;4995278;28;20442;-59
2022/04/06 05:16:45;;;;;;;9.23;5.30;;;;;;;19.44;23.57;100873.97;5011543;28;20423;-59
2022/04/06 05:19:12;;;;;;;9.35;5.22;;;;;;;19.60;23.46;100880.59;5010949;28;20882;-59
2022/04/06 05:21:39;;;;;;;9.45;6.00;;;;;;;19.17;24.15;100891.44;5001900;28;20516;-59
2022/04/06 05:24:07;;;;;;;8.70;6.30;;;;;;;19.77;23.44;100886.22;4991860;28;20422;-61
2022/04/06 05:26:34;;;;;;;11.23;7.43;;;;;;;19.45;23.79;100888.25;4991621;28;20421;-60
2022/04/06 05:29:01;;;;;;;17.27;9.77;;;;;;;19.42;23.90;100886.00;4991700;28;20468;-59
2022/04/06 05:31:30;;;;;;;19.65;9.85;;;;;;;20.21;23.49;100888.72;5010074;28;20412;-60
2022/04/06 05:33:57;;;;;;;14.05;9.82;;;;;;;20.65;22.75;100889.28;4993776;28;20444;-59
2022/04/06 05:36:24;;;;;;;19.27;10.88;;;;;;;21.63;21.64;100886.91;4990439;28;20444;-61
2022/04/06 05:38:51;;;;;;;15.67;10.37;;;;;;;21.81;21.49;100895.88;4991757;28;20417;-60
2022/04/06 05:41:18;;;;;;;14.13;9.30;;;;;;;23.13;19.83;100895.69;4991556;28;20445;-59
2022/04/06 05:43:45;;;;;;;13.43;8.73;;;;;;;25.02;18.03;100894.09;4991908;28;20437;-60
2022/04/06 05:46:12;;;;;;;14.02;9.70;;;;;;;27.24;16.48;100890.63;4992178;28;20422;-60
2022/04/06 05:48:40;;;;;;;22.17;10.82;;;;;;;27.77;15.70;100888.25;4991119;28;20505;-61
2022/04/06 05:51:07;;;;;;;14.30;9.50;;;;;;;27.90;15.49;100886.00;4991221;28;20437;-59
2022/04/06 05:53:34;;;;;;;12.45;9.13;;;;;;;28.31;15.51;100875.66;4991384;28;20445;-59
2022/04/06 05:56:01;;;;;;;9.20;7.73;;;;;;;28.42;15.13;100885.34;5009522;28;20431;-59
2022/04/06 05:58:28;;;;;;;9.05;7.20;;;;;;;28.69;14.97;100888.72;5010558;28;20424;-59
2022/04/06 06:00:55;;;;;;;9.75;7.22;;;;;;;30.71;13.32;100875.59;4993366;28;20883;-59
2022/04/06 06:03:22;;;;;;;10.43;6.97;;;;;;;32.79;12.15;100872.34;4990872;28;20500;-59
2022/04/06 06:05:50;;;;;;;10.63;8.00;;;;;;;33.93;11.02;100876.16;4990928;28;20423;-60
2022/04/06 06:08:17;;;;;;;12.70;8.93;;;;;;;34.27;10.51;100883.59;5009667;28;20424;-59
2022/04/06 06:10:44;;;;;;;13.00;8.70;;;;;;;34.78;10.23;100877.47;5010587;28;20431;-59
2022/04/06 06:13:11;;;;;;;12.38;8.18;;;;;;;35.71;9.87;100886.69;5010390;28;20885;-61
2022/04/06 06:15:38;;;;;;;11.43;7.67;;;;;;;34.79;10.79;100888.16;4987185;28;21010;-62
2022/04/06 06:18:05;;;;;;;9.02;7.28;;;;;;;35.44;9.93;100879.75;4989639;28;20504;-60
2022/04/06 06:20:32;;;;;;;10.27;6.85;;;;;;;36.52;9.64;100884.47;4989595;28;20418;-61
2022/04/06 06:23:00;;;;;;;9.63;6.30;;;;;;;36.71;9.35;100883.16;4989732;28;20429;-60
2022/04/06 06:25:27;;;;;;;9.07;6.82;;;;;;;37.11;9.83;100877.75;4977816;28;20477;-61
2022/04/06 06:27:54;;;;;;;8.30;6.18;;;;;;;37.32;8.85;100879.59;4972114;28;20438;-61
2022/04/06 06:30:24;;;;;;;9.70;7.35;;;;;;;37.61;8.88;100875.72;4978996;28;20506;-60
2022/04/06 06:32:53;;;;;;;7.95;6.35;;;;;;;36.03;9.89;100889.81;4971158;28;20518;-61
2022/04/06 06:35:20;;;;;;;9.87;6.50;;;;;;;37.86;8.67;100878.41;4970837;28;20419;-61
2022/04/06 06:37:47;;;;;;;7.95;6.50;;;;;;;38.65;8.19;100879.78;4979387;28;20783;-63
2022/04/06 06:40:17;;;;;;;9.68;6.78;;;;;;;38.30;8.82;100886.75;4977003;28;20416;-62
2022/04/06 06:42:44;;;;;;;12.90;7.50;;;;;;;39.81;7.94;100870.13;4986862;28;20427;-63
2022/04/06 06:45:12;;;;;;;11.38;7.20;;;;;;;41.63;6.69;100871.50;4975860;28;20432;-62
2022/04/06 06:47:40;;;;;;;10.35;7.30;;;;;;;41.90;6.86;100874.25;4971791;28;20462;-61
2022/04/06 06:50:07;;;;;;;9.57;7.30;;;;;;;43.23;5.82;100867.03;4975053;28;20580;-61
2022/04/06 06:52:35;;;;;;;10.27;7.27;;;;;;;43.21;5.82;100869.41;4978364;28;20945;-62
2022/04/06 06:55:02;;;;;;;9.63;7.17;;;;;;;41.91;6.22;100865.50;4977988;28;20410;-62
2022/04/06 06:57:31;;;;;;;8.98;7.32;;;;;;;42.33;6.17;100869.13;4981796;28;20946;-61
2022/04/06 06:59:58;;;;;;;10.70;7.38;;;;;;;44.30;5.13;100861.03;4986700;28;20420;-61
2022/04/06 07:02:25;;;;;;;9.50;7.15;;;;;;;43.91;5.50;100862.53;4986202;28;20504;-63
2022/04/06 07:04:52;;;;;;;11.82;8.10;;;;;;;45.55;5.09;100859.22;4984043;28;20437;-62
2022/04/06 07:07:19;;;;;;;11.48;8.50;;;;;;;46.73;4.40;100851.97;4983662;28;20450;-62
2022/04/06 07:09:46;;;;;;;16.08;8.65;;;;;;;47.27;3.97;100852.22;4986543;28;20422;-62
2022/04/06 07:12:13;;;;;;;10.55;8.23;;;;;;;47.19;4.02;100847.88;4983989;28;20439;-60
2022/04/06 07:14:41;;;;;;;11.30;9.10;;;;;;;47.59;3.94;100853.78;4984831;28;20441;-61
2022/04/06 07:17:08;;;;;;;12.43;7.95;;;;;;;47.73;4.03;100850.00;4984922;28;20788;-64
2022/04/06 07:19:35;;;;;;;10.95;9.07;;;;;;;48.55;3.62;100847.09;4983609;28;20968;-62
2022/04/06 07:22:02;;;;;;;10.65;9.00;;;;;;;48.93;3.30;100844.81;4984163;28;20903;-60
2022/04/06 07:24:29;;;;;;;11.57;9.40;;;;;;;49.18;3.20;100846.31;4986809;28;20966;-60
2022/04/06 07:26:56;;;;;;;13.83;9.10;;;;;;;49.28;2.89;100852.97;4985722;28;20418;-62
2022/04/06 07:29:23;;;;;;;9.63;7.53;;;;;;;47.58;3.56;100857.81;4985202;28;20426;-60
2022/04/06 07:31:51;;;;;;;9.33;7.80;;;;;;;48.53;3.25;100855.19;4983869;28;20519;-62
2022/04/06 07:34:18;;;;;;;10.05;7.80;;;;;;;48.77;3.23;100848.31;4984309;28;20453;-62
2022/04/06 07:36:45;;;;;;;9.45;8.20;;;;;;;47.85;3.85;100851.44;4979285;28;20423;-62
2022/04/06 07:39:12;;;;;;;11.93;8.20;;;;;;;47.64;3.71;100855.38;4984485;28;20795;-61
2022/04/06 07:41:39;;;;;;;8.00;6.63;;;;;;;46.31;4.03;100854.72;4984035;28;20421;-61
2022/04/06 07:44:07;;;;;;;10.35;7.00;;;;;;;47.70;4.11;100856.47;4986910;28;20496;-63
2022/04/06 07:46:36;;;;;;;9.55;7.10;;;;;;;42.10;6.08;100861.75;4982767;28;20931;-62
2022/04/06 07:49:06;;;;;;;8.63;6.10;;;;;;;36.75;9.57;100870.25;4985805;28;20923;-61
2022/04/06 07:51:33;;;;;;;8.20;5.95;;;;;;;33.90;11.44;100874.84;4986345;28;20932;-62
2022/04/06 07:54:00;;;;;;;10.43;6.67;;;;;;;31.99;12.22;100880.34;4984926;28;20516;-61
2022/04/06 07:56:27;;;;;;;12.15;7.18;;;;;;;30.22;13.55;100882.44;4973503;28;20502;-61
2022/04/06 07:58:54;;;;;;;9.70;7.13;;;;;;;28.02;15.90;100886.50;4975556;28;20522;-60
2022/04/06 08:01:21;;;;;;;7.55;5.88;;;;;;;26.68;16.67;100894.31;4976041;28;20496;-60
2022/04/06 08:03:47;;;;;;;8.85;5.47;;;;;;;25.59;18.01;100900.63;4973440;28;20525;-60
2022/04/06 08:06:16;;;;;;;10.02;5.30;;;;;;;25.86;18.21;100895.00;4979688;28;20493;-60
2022/04/06 08:08:43;;;;;;;14.52;5.78;;;;;;;25.38;18.58;100899.72;4992073;28;20421;-60
2022/04/06 08:11:10;;;;;;;6.53;5.10;;;;;;;24.89;18.79;100899.97;4980367;28;20490;-60
2022/04/06 08:13:37;;;;;;;7.65;5.70;;;;;;;24.82;18.96;100899.38;4992837;28;20510;-59
2022/04/06 08:16:04;;;;;;;7.40;5.07;;;;;;;24.89;20.78;100899.97;4973487;28;20415;-60
2022/04/06 08:18:31;;;;;;;7.05;4.38;;;;;;;24.94;19.18;100897.31;4974494;28;20514;-59
2022/04/06 08:21:07;;;;;;;6.17;4.33;;;;;;;24.60;18.83;100897.59;4981708;28;20444;-60
2022/04/06 08:23:38;;;;;;;5.70;4.43;;;;;;;23.55;19.83;100895.97;4992404;28;20943;-60
2022/04/06 08:26:05;;;;;;;7.32;5.00;;;;;;;23.85;20.52;100895.50;4992894;28;20422;-60
2022/04/06 08:28:32;;;;;;;7.93;5.10;;;;;;;23.93;20.00;100893.44;4993266;28;20807;-61
2022/04/06 08:30:58;;;;;;;6.25;4.75;;;;;;;23.89;20.98;100889.59;4998329;28;20426;-58
2022/04/06 08:33:25;;;;;;;6.45;4.25;;;;;;;23.66;20.08;100892.31;5012193;28;20412;-59
2022/04/06 08:35:52;;;;;;;5.90;4.35;;;;;;;23.72;19.88;100887.78;5012137;28;20416;-59
2022/04/06 08:38:28;;;;;;;6.85;4.75;;;;;;;23.93;20.17;100888.84;4997056;28;20429;-59
2022/04/06 08:40:56;;;;;;;11.30;6.25;;;;;;;23.95;20.33;100881.28;5004015;28;20466;-60
2022/04/06 08:43:42;;;;;;;10.48;5.68;;;;;;;24.05;19.68;100884.06;4991278;28;20433;-59
2022/04/06 08:46:10;;;;;;;10.80;5.90;;;;;;;23.99;19.91;100876.19;4979246;28;20548;-60
2022/04/06 08:48:37;;;;;;;9.13;5.30;;;;;;;23.83;21.09;100876.00;4972023;28;20425;-60
2022/04/06 08:51:08;;;;;;;6.87;3.70;;;;;;;23.57;21.14;100880.31;4977021;28;20435;-60
2022/04/06 08:53:35;;;;;;;5.93;3.92;;;;;;;23.75;21.61;100870.19;5000755;28;20428;-59
2022/04/06 08:56:04;;;;;;;4.57;3.60;;;;;;;22.82;21.47;100881.72;4997670;28;20421;-59
2022/04/06 08:58:30;;;;;;;4.90;3.50;;;;;;;22.43;22.41;100881.63;5001130;28;20453;-60
2022/04/06 09:00:57;;;;;;;5.65;3.40;;;;;;;22.90;21.81;100875.84;4996654;28;20795;-60
2022/04/06 09:03:25;;;;;;;4.13;3.20;;;;;;;23.20;22.13;100866.56;5004421;28;20446;-59
2022/04/06 09:06:01;;;;;;;8.35;4.82;;;;;;;23.26;21.40;100866.41;4995483;28;20425;-59
2022/04/06 09:08:35;;;;;;;8.60;5.43;;;;;;;22.84;21.67;100869.56;5002767;28;20472;-59
2022/04/06 09:11:08;;;;;;;7.53;4.32;;;;;;;22.32;22.45;100869.84;5000040;28;20451;-59
2022/04/06 09:13:35;;;;;;;7.00;4.53;;;;;;;22.26;22.22;100863.53;4998114;28;20418;-59
2022/04/06 09:16:04;;;;;;;7.50;4.60;;;;;;;22.15;22.88;100870.59;4997700;28;20431;-61
2022/04/06 09:18:35;;;;;;;8.13;4.82;;;;;;;22.58;22.49;100868.38;4979047;28;20564;-60
2022/04/06 09:21:02;;;;;;;7.68;5.03;;;;;;;23.09;22.46;100858.31;5004086;28;20424;-59
2022/04/06 09:23:30;;;;;;;6.63;5.25;;;;;;;23.02;22.03;100854.94;4993739;28;20924;-59
2022/04/06 09:26:03;;;;;;;7.13;5.25;;;;;;;23.34;22.17;100851.63;5008416;28;20459;-59
2022/04/06 09:29:21;;;;;;;6.68;4.55;;;;;;;23.43;21.90;100846.59;5117229;27;20929;-59
2022/04/06 09:31:49;;;;;;;8.02;4.50;;;;;;;23.65;22.00;100841.13;5112040;28;20407;-60
2022/04/06 09:34:16;;;;;;;6.97;4.28;;;;;;;23.56;21.90;100837.25;5121293;27;20840;-59
2022/04/06 09:36:43;;;;;;;4.80;3.37;;;;;;;22.86;22.51;100831.47;5122505;28;20411;-59
2022/04/06 09:39:10;;;;;;;7.63;3.97;;;;;;;22.83;22.69;100834.66;5112749;28;20415;-60
2022/04/06 09:41:59;;;;;;;3.63;2.45;;;;;;;23.40;22.23;100828.13;5117691;27;20760;-61
2022/04/06 09:52:56;;;;;;;4.65;2.90;;;;;;;23.67;21.86;100820.84;5109895;28;20420;-60
2022/04/06 09:55:24;;;;;;;6.38;3.60;;;;;;;23.81;21.26;100817.78;5106826;28;20423;-59
2022/04/06 09:57:53;;;;;;;4.70;2.83;;;;;;;23.68;21.45;100808.16;5104113;28;20421;-61
2022/04/06 10:00:22;;;;;;;4.63;3.05;;;;;;;23.56;21.84;100810.19;5106139;28;20412;-60
2022/04/06 10:02:55;;;;;;;4.05;2.67;;;;;;;23.07;22.58;100802.88;5106085;28;20427;-61
2022/04/06 10:05:24;;;;;;;6.80;2.50;;;;;;;23.20;22.39;100807.09;5105876;28;20415;-60
2022/04/06 10:07:53;;;;;;;3.90;2.47;;;;;;;22.12;23.40;100808.19;5106147;28;20428;-60
2022/04/06 10:10:23;;;;;;;4.10;2.50;;;;;;;21.79;24.46;100807.06;5106285;28;20424;-60
2022/04/06 10:12:50;;;;;;;5.23;2.40;;;;;;;22.36;23.26;100800.75;5105541;28;20417;-60
2022/04/06 10:15:18;;;;;;;4.47;2.53;;;;;;;22.73;23.11;100794.00;5104542;28;20917;-60
2022/04/06 10:17:46;;;;;;;3.38;2.40;;;;;;;22.81;22.89;100786.25;5118846;28;20420;-61
2022/04/06 10:20:22;;;;;;;3.92;2.28;;;;;;;22.80;22.68;100790.06;5105621;28;20929;-60
2022/04/06 10:23:03;;;;;;;2.90;2.27;;;;;;;22.67;23.33;100785.84;5106113;28;20412;-60
2022/04/06 10:25:44;;;;;;;3.10;2.40;;;;;;;22.46;24.15;100783.91;5105684;28;20424;-60
2022/04/06 10:28:12;;;;;;;5.87;2.23;;;;;;;21.76;24.68;100783.28;5105814;28;20914;-60
2022/04/06 10:30:39;;;;;;;3.40;2.17;;;;;;;21.41;24.82;100776.13;5105984;28;20413;-61
2022/04/06 10:33:21;;;;;;;3.75;2.17;;;;;;;21.65;24.88;100776.06;5105353;28;20806;-61
2022/04/06 10:35:48;;;;;;;3.95;2.20;;;;;;;21.84;24.20;100764.00;5105654;28;20413;-60
2022/04/06 10:38:18;;;;;;;2.45;1.80;;;;;;;21.71;24.55;100767.78;5104954;28;20427;-61
2022/04/06 10:40:59;;;;;;;3.28;1.90;;;;;;;21.68;24.15;100775.56;5091042;28;20414;-61
2022/04/06 10:43:50;;;;;;;2.47;1.70;;;;;;;21.79;24.00;100772.00;5091127;28;20475;-61
2022/04/06 10:46:20;;;;;;;5.18;1.83;;;;;;;21.67;24.00;100769.34;5078771;28;20508;-60
2022/04/06 10:49:15;;;;;;;2.70;1.90;;;;;;;21.54;24.61;100758.88;5091575;28;20486;-61
2022/04/06 10:51:43;;;;;;;5.10;2.10;;;;;;;21.82;24.15;100759.88;5088785;28;20420;-60
2022/04/06 10:54:42;;;;;;;2.55;1.90;;;;;;;21.90;24.44;100757.59;5091629;28;20911;-61
2022/04/06 10:57:08;;;;;;;4.00;1.77;;;;;;;21.83;24.08;100756.13;5096385;28;20427;-60
2022/04/06 10:59:35;;;;;;;2.50;1.80;;;;;;;21.61;24.51;100748.75;5091427;28;20414;-60
2022/04/06 11:02:19;;;;;;;4.15;1.80;;;;;;;21.75;24.50;100749.25;5091252;28;20420;-61
2022/04/06 11:04:49;;;;;;;2.45;1.80;;;;;;;21.93;24.13;100745.50;5090525;28;20933;-61
2022/04/06 11:10:06;;;;;;;3.95;2.05;;;;;;;22.20;23.89;100740.28;5091296;28;20410;-60
2022/04/06 11:10:15;;;;;;;3.67;2.00;;;;;;;22.25;24.28;100734.13;5090835;28;20432;-62
2022/04/06 11:12:59;;;;;;;3.20;1.92;;;;;;;21.93;24.32;100729.31;5091335;28;20418;-58
2022/04/06 11:15:37;;;;;;;3.70;2.00;;;;;;;21.90;24.52;100724.41;5093382;28;20483;-61
2022/04/06 11:18:05;;;;;;;3.13;2.00;;;;;;;21.80;24.27;100726.94;5092529;28;20427;-60
2022/04/06 11:20:34;;;;;;;2.75;1.83;;;;;;;21.68;24.62;100721.59;5091761;28;20410;-60
2022/04/06 11:23:01;;;;;;;2.33;1.75;;;;;;;21.37;24.79;100715.63;5090678;28;20794;-61
2022/04/06 11:25:30;;;;;;;2.88;1.80;;;;;;;21.69;24.41;100718.66;5091122;28;20911;-60
2022/04/06 11:28:08;;;;;;;2.75;1.73;;;;;;;21.49;24.47;100708.34;5090232;28;20432;-60
2022/04/06 11:30:36;;;;;;;1.77;1.45;;;;;;;21.43;24.52;100706.59;5088811;28;20413;-59
2022/04/06 11:33:05;;;;;;;2.20;1.70;;;;;;;21.32;24.67;100696.66;5090936;28;20432;-60
2022/04/06 11:35:35;;;;;;;2.30;1.50;;;;;;;21.36;24.21;100704.03;5094486;28;20422;-60
2022/04/06 11:38:04;;;;;;;1.88;1.55;;;;;;;21.26;24.35;100695.75;5095076;28;20466;-59
2022/04/06 11:40:31;;;;;;;2.80;1.60;;;;;;;21.44;24.06;100699.31;5090690;28;20436;-59
2022/04/06 11:43:00;;;;;;;1.98;1.48;;;;;;;21.51;24.19;100694.63;5091078;28;20413;-60
2022/04/06 11:45:29;;;;;;;2.00;1.48;;;;;;;21.70;24.45;100679.84;5090423;28;20504;-59
2022/04/06 11:47:58;;;;;;;2.13;1.40;;;;;;;21.69;23.99;100683.59;5089860;28;20516;-60
2022/04/06 11:50:29;;;;;;;1.90;1.35;;;;;;;21.61;24.07;100677.78;5089839;28;20520;-60
2022/04/06 11:53:01;;;;;;;2.53;1.40;;;;;;;21.72;23.98;100669.63;5089652;28;20911;-59
2022/04/06 11:55:44;;;;;;;1.70;1.40;;;;;;;21.88;23.64;100675.28;5087367;28;20496;-60
2022/04/06 11:58:11;;;;;;;2.17;1.60;;;;;;;21.83;24.21;100675.19;5089373;28;20421;-60